sensor_id;sensor_type;location;lat;lon;timestamp;P1;durP1;ratioP1;P2;durP2;ratioP2
21305;SDS011;10812;51.838;5.838;2023-02-28T00:01:14;4.67;;;3.23;;
21305;SDS011;10812;51.838;5.838;2023-02-28T00:03:42;6.97;;;3.33;;
21305;SDS011;10812;51.838;5.838;2023-02-28T00:06:11;6.73;;;3.40;;
21305;SDS011;10812;51.838;5.838;2023-02-28T00:08:39;5.37;;;3.20;;
21305;SDS011;10812;51.838;5.838;2023-02-28T00:11:08;4.27;;;3.27;;
21305;SDS011;10812;51.838;5.838;2023-02-28T00:13:40;4.60;;;3.50;;
21305;SDS011;10812;51.838;5.838;2023-02-28T00:16:11;7.47;;;3.20;;
21305;SDS011;10812;51.838;5.838;2023-02-28T00:18:41;7.53;;;3.20;;
21305;SDS011;10812;51.838;5.838;2023-02-28T00:21:09;9.60;;;3.60;;
21305;SDS011;10812;51.838;5.838;2023-02-28T00:23:37;4.80;;;3.30;;
21305;SDS011;10812;51.838;5.838;2023-02-28T00:26:05;5.03;;;3.07;;
21305;SDS011;10812;51.838;5.838;2023-02-28T00:28:34;5.63;;;3.20;;
21305;SDS011;10812;51.838;5.838;2023-02-28T00:31:03;3.70;;;3.03;;
21305;SDS011;10812;51.838;5.838;2023-02-28T00:33:32;3.13;;;2.63;;
21305;SDS011;10812;51.838;5.838;2023-02-28T00:36:04;5.03;;;2.93;;
21305;SDS011;10812;51.838;5.838;2023-02-28T00:38:33;8.23;;;3.53;;
21305;SDS011;10812;51.838;5.838;2023-02-28T00:41:01;4.20;;;2.90;;
21305;SDS011;10812;51.838;5.838;2023-02-28T00:43:32;6.73;;;3.83;;
21305;SDS011;10812;51.838;5.838;2023-02-28T00:46:00;4.93;;;3.27;;
21305;SDS011;10812;51.838;5.838;2023-02-28T00:48:30;5.67;;;3.17;;
21305;SDS011;10812;51.838;5.838;2023-02-28T00:50:59;4.23;;;3.27;;
21305;SDS011;10812;51.838;5.838;2023-02-28T00:53:27;7.90;;;3.97;;
21305;SDS011;10812;51.838;5.838;2023-02-28T00:55:56;4.60;;;3.47;;
21305;SDS011;10812;51.838;5.838;2023-02-28T00:58:24;7.90;;;3.77;;
21305;SDS011;10812;51.838;5.838;2023-02-28T01:00:52;6.20;;;4.07;;
21305;SDS011;10812;51.838;5.838;2023-02-28T01:03:21;6.20;;;3.63;;
21305;SDS011;10812;51.838;5.838;2023-02-28T01:05:52;5.03;;;3.43;;
21305;SDS011;10812;51.838;5.838;2023-02-28T01:08:20;6.10;;;3.47;;
21305;SDS011;10812;51.838;5.838;2023-02-28T01:10:48;6.47;;;3.60;;
21305;SDS011;10812;51.838;5.838;2023-02-28T01:13:17;5.10;;;3.33;;
21305;SDS011;10812;51.838;5.838;2023-02-28T01:15:45;6.10;;;3.80;;
21305;SDS011;10812;51.838;5.838;2023-02-28T01:18:17;5.53;;;3.57;;
21305;SDS011;10812;51.838;5.838;2023-02-28T01:20:45;4.80;;;3.77;;
21305;SDS011;10812;51.838;5.838;2023-02-28T01:23:14;6.43;;;3.53;;
21305;SDS011;10812;51.838;5.838;2023-02-28T01:25:42;4.43;;;3.47;;
21305;SDS011;10812;51.838;5.838;2023-02-28T01:28:11;4.87;;;3.47;;
21305;SDS011;10812;51.838;5.838;2023-02-28T01:30:39;5.97;;;3.40;;
21305;SDS011;10812;51.838;5.838;2023-02-28T01:33:07;5.63;;;3.17;;
21305;SDS011;10812;51.838;5.838;2023-02-28T01:35:35;5.27;;;3.73;;
21305;SDS011;10812;51.838;5.838;2023-02-28T01:38:03;3.33;;;3.00;;
21305;SDS011;10812;51.838;5.838;2023-02-28T01:40:48;7.47;;;3.97;;
21305;SDS011;10812;51.838;5.838;2023-02-28T01:43:19;4.83;;;3.63;;
21305;SDS011;10812;51.838;5.838;2023-02-28T01:45:50;5.13;;;3.53;;
21305;SDS011;10812;51.838;5.838;2023-02-28T01:48:18;8.37;;;4.23;;
21305;SDS011;10812;51.838;5.838;2023-02-28T01:50:48;4.73;;;3.43;;
21305;SDS011;10812;51.838;5.838;2023-02-28T01:53:18;5.43;;;3.63;;
21305;SDS011;10812;51.838;5.838;2023-02-28T01:55:50;6.77;;;3.83;;
21305;SDS011;10812;51.838;5.838;2023-02-28T01:58:20;5.97;;;3.60;;
21305;SDS011;10812;51.838;5.838;2023-02-28T02:00:49;7.57;;;4.33;;
21305;SDS011;10812;51.838;5.838;2023-02-28T02:03:18;4.47;;;3.77;;
21305;SDS011;10812;51.838;5.838;2023-02-28T02:05:47;5.83;;;4.30;;
21305;SDS011;10812;51.838;5.838;2023-02-28T02:08:17;5.60;;;4.10;;
21305;SDS011;10812;51.838;5.838;2023-02-28T02:10:48;5.87;;;4.20;;
21305;SDS011;10812;51.838;5.838;2023-02-28T02:13:26;6.23;;;4.40;;
21305;SDS011;10812;51.838;5.838;2023-02-28T02:16:04;6.60;;;3.67;;
21305;SDS011;10812;51.838;5.838;2023-02-28T02:18:42;8.07;;;3.93;;
21305;SDS011;10812;51.838;5.838;2023-02-28T02:21:22;8.17;;;4.77;;
21305;SDS011;10812;51.838;5.838;2023-02-28T02:24:07;6.33;;;4.67;;
21305;SDS011;10812;51.838;5.838;2023-02-28T02:26:59;5.03;;;4.30;;
21305;SDS011;10812;51.838;5.838;2023-02-28T02:29:39;6.80;;;4.97;;
21305;SDS011;10812;51.838;5.838;2023-02-28T02:35:17;6.73;;;5.07;;
21305;SDS011;10812;51.838;5.838;2023-02-28T02:37:52;7.97;;;4.73;;
21305;SDS011;10812;51.838;5.838;2023-02-28T02:40:32;5.70;;;4.57;;
21305;SDS011;10812;51.838;5.838;2023-02-28T02:43:07;6.63;;;4.30;;
21305;SDS011;10812;51.838;5.838;2023-02-28T02:45:39;9.23;;;4.77;;
21305;SDS011;10812;51.838;5.838;2023-02-28T02:48:13;7.63;;;4.50;;
21305;SDS011;10812;51.838;5.838;2023-02-28T02:50:48;5.47;;;4.30;;
21305;SDS011;10812;51.838;5.838;2023-02-28T02:53:20;7.87;;;4.27;;
21305;SDS011;10812;51.838;5.838;2023-02-28T02:55:54;5.27;;;4.03;;
21305;SDS011;10812;51.838;5.838;2023-02-28T02:58:24;7.63;;;4.77;;
21305;SDS011;10812;51.838;5.838;2023-02-28T03:06:28;6.37;;;4.00;;
21305;SDS011;10812;51.838;5.838;2023-02-28T03:08:56;4.97;;;4.07;;
21305;SDS011;10812;51.838;5.838;2023-02-28T03:11:24;5.63;;;3.80;;
21305;SDS011;10812;51.838;5.838;2023-02-28T03:16:57;4.40;;;3.53;;
21305;SDS011;10812;51.838;5.838;2023-02-28T03:19:40;10.10;;;4.30;;
21305;SDS011;10812;51.838;5.838;2023-02-28T03:22:31;5.00;;;4.17;;
21305;SDS011;10812;51.838;5.838;2023-02-28T03:25:18;8.53;;;4.47;;
21305;SDS011;10812;51.838;5.838;2023-02-28T03:27:54;4.60;;;4.10;;
21305;SDS011;10812;51.838;5.838;2023-02-28T03:30:29;5.97;;;4.10;;
21305;SDS011;10812;51.838;5.838;2023-02-28T03:33:03;7.67;;;4.13;;
21305;SDS011;10812;51.838;5.838;2023-02-28T03:35:36;7.13;;;4.13;;
21305;SDS011;10812;51.838;5.838;2023-02-28T03:38:10;4.97;;;4.00;;
21305;SDS011;10812;51.838;5.838;2023-02-28T03:40:43;6.60;;;4.33;;
21305;SDS011;10812;51.838;5.838;2023-02-28T03:43:18;9.23;;;5.00;;
21305;SDS011;10812;51.838;5.838;2023-02-28T03:45:50;4.50;;;3.90;;
21305;SDS011;10812;51.838;5.838;2023-02-28T03:48:20;6.80;;;4.00;;
21305;SDS011;10812;51.838;5.838;2023-02-28T03:50:52;6.53;;;4.40;;
21305;SDS011;10812;51.838;5.838;2023-02-28T03:53:25;6.00;;;3.60;;
21305;SDS011;10812;51.838;5.838;2023-02-28T03:55:57;5.60;;;4.17;;
21305;SDS011;10812;51.838;5.838;2023-02-28T03:58:30;5.07;;;3.50;;
21305;SDS011;10812;51.838;5.838;2023-02-28T04:01:07;6.17;;;4.17;;
21305;SDS011;10812;51.838;5.838;2023-02-28T04:03:37;4.53;;;3.60;;
21305;SDS011;10812;51.838;5.838;2023-02-28T04:06:07;4.80;;;3.63;;
21305;SDS011;10812;51.838;5.838;2023-02-28T04:08:42;5.10;;;3.73;;
21305;SDS011;10812;51.838;5.838;2023-02-28T04:11:14;5.80;;;3.73;;
21305;SDS011;10812;51.838;5.838;2023-02-28T04:13:47;8.07;;;3.77;;
21305;SDS011;10812;51.838;5.838;2023-02-28T04:16:16;5.80;;;3.77;;
21305;SDS011;10812;51.838;5.838;2023-02-28T04:19:00;7.57;;;3.77;;
21305;SDS011;10812;51.838;5.838;2023-02-28T04:21:30;5.80;;;3.60;;
21305;SDS011;10812;51.838;5.838;2023-02-28T04:24:00;4.97;;;3.67;;
21305;SDS011;10812;51.838;5.838;2023-02-28T04:26:29;4.80;;;3.53;;
21305;SDS011;10812;51.838;5.838;2023-02-28T04:28:58;6.47;;;3.70;;
21305;SDS011;10812;51.838;5.838;2023-02-28T04:31:27;4.73;;;3.23;;
21305;SDS011;10812;51.838;5.838;2023-02-28T04:33:55;4.70;;;3.70;;
21305;SDS011;10812;51.838;5.838;2023-02-28T04:36:24;6.07;;;3.10;;
21305;SDS011;10812;51.838;5.838;2023-02-28T04:38:52;5.73;;;3.53;;
21305;SDS011;10812;51.838;5.838;2023-02-28T04:41:21;5.17;;;3.20;;
21305;SDS011;10812;51.838;5.838;2023-02-28T04:43:50;4.67;;;3.33;;
21305;SDS011;10812;51.838;5.838;2023-02-28T04:46:18;5.50;;;3.10;;
21305;SDS011;10812;51.838;5.838;2023-02-28T04:48:47;5.80;;;3.07;;
21305;SDS011;10812;51.838;5.838;2023-02-28T04:51:16;4.03;;;2.90;;
21305;SDS011;10812;51.838;5.838;2023-02-28T04:53:45;4.30;;;3.17;;
21305;SDS011;10812;51.838;5.838;2023-02-28T04:56:14;4.37;;;3.40;;
21305;SDS011;10812;51.838;5.838;2023-02-28T04:58:45;5.23;;;2.93;;
21305;SDS011;10812;51.838;5.838;2023-02-28T05:01:18;4.27;;;2.87;;
21305;SDS011;10812;51.838;5.838;2023-02-28T05:03:49;4.83;;;2.97;;
21305;SDS011;10812;51.838;5.838;2023-02-28T05:06:19;4.17;;;2.83;;
21305;SDS011;10812;51.838;5.838;2023-02-28T05:08:50;5.43;;;2.83;;
21305;SDS011;10812;51.838;5.838;2023-02-28T05:11:19;4.00;;;2.50;;
21305;SDS011;10812;51.838;5.838;2023-02-28T05:13:50;4.50;;;2.60;;
21305;SDS011;10812;51.838;5.838;2023-02-28T05:16:19;6.43;;;3.60;;
21305;SDS011;10812;51.838;5.838;2023-02-28T05:18:48;3.30;;;2.67;;
21305;SDS011;10812;51.838;5.838;2023-02-28T05:21:26;2.93;;;2.40;;
21305;SDS011;10812;51.838;5.838;2023-02-28T05:23:56;3.93;;;2.97;;
21305;SDS011;10812;51.838;5.838;2023-02-28T05:26:26;4.10;;;2.80;;
21305;SDS011;10812;51.838;5.838;2023-02-28T05:28:56;3.60;;;2.70;;
21305;SDS011;10812;51.838;5.838;2023-02-28T05:38:56;4.03;;;2.23;;
21305;SDS011;10812;51.838;5.838;2023-02-28T05:41:24;5.43;;;2.90;;
21305;SDS011;10812;51.838;5.838;2023-02-28T05:43:53;6.37;;;2.20;;
21305;SDS011;10812;51.838;5.838;2023-02-28T05:46:22;4.40;;;2.27;;
21305;SDS011;10812;51.838;5.838;2023-02-28T05:48:51;4.57;;;2.43;;
21305;SDS011;10812;51.838;5.838;2023-02-28T05:51:28;3.10;;;2.20;;
21305;SDS011;10812;51.838;5.838;2023-02-28T05:54:00;5.33;;;2.90;;
21305;SDS011;10812;51.838;5.838;2023-02-28T05:56:29;6.00;;;2.50;;
21305;SDS011;10812;51.838;5.838;2023-02-28T05:58:57;4.93;;;2.40;;
21305;SDS011;10812;51.838;5.838;2023-02-28T06:01:32;3.07;;;2.20;;
21305;SDS011;10812;51.838;5.838;2023-02-28T06:04:01;5.50;;;2.37;;
21305;SDS011;10812;51.838;5.838;2023-02-28T06:06:31;6.37;;;2.80;;
21305;SDS011;10812;51.838;5.838;2023-02-28T06:09:02;3.07;;;2.37;;
21305;SDS011;10812;51.838;5.838;2023-02-28T06:11:31;3.60;;;2.40;;
21305;SDS011;10812;51.838;5.838;2023-02-28T06:13:59;4.63;;;2.13;;
21305;SDS011;10812;51.838;5.838;2023-02-28T06:16:29;3.93;;;2.40;;
21305;SDS011;10812;51.838;5.838;2023-02-28T06:19:00;4.90;;;2.10;;
21305;SDS011;10812;51.838;5.838;2023-02-28T06:21:30;4.13;;;2.40;;
21305;SDS011;10812;51.838;5.838;2023-02-28T06:23:58;3.37;;;2.20;;
21305;SDS011;10812;51.838;5.838;2023-02-28T06:26:27;2.93;;;2.30;;
21305;SDS011;10812;51.838;5.838;2023-02-28T06:28:55;6.23;;;2.70;;
21305;SDS011;10812;51.838;5.838;2023-02-28T06:31:23;2.73;;;1.97;;
21305;SDS011;10812;51.838;5.838;2023-02-28T06:33:52;3.40;;;2.30;;
21305;SDS011;10812;51.838;5.838;2023-02-28T06:36:22;3.50;;;2.47;;
21305;SDS011;10812;51.838;5.838;2023-02-28T06:38:50;4.47;;;2.20;;
21305;SDS011;10812;51.838;5.838;2023-02-28T06:41:21;3.33;;;2.37;;
21305;SDS011;10812;51.838;5.838;2023-02-28T06:43:50;4.23;;;2.30;;
21305;SDS011;10812;51.838;5.838;2023-02-28T06:46:19;3.43;;;2.00;;
21305;SDS011;10812;51.838;5.838;2023-02-28T06:48:48;3.43;;;2.30;;
21305;SDS011;10812;51.838;5.838;2023-02-28T06:51:17;2.23;;;1.80;;
21305;SDS011;10812;51.838;5.838;2023-02-28T06:53:50;3.17;;;2.60;;
21305;SDS011;10812;51.838;5.838;2023-02-28T06:56:18;7.10;;;3.33;;
21305;SDS011;10812;51.838;5.838;2023-02-28T06:58:47;4.07;;;2.13;;
21305;SDS011;10812;51.838;5.838;2023-02-28T07:01:16;6.77;;;2.63;;
21305;SDS011;10812;51.838;5.838;2023-02-28T07:03:45;4.67;;;2.37;;
21305;SDS011;10812;51.838;5.838;2023-02-28T07:06:18;4.27;;;2.27;;
21305;SDS011;10812;51.838;5.838;2023-02-28T07:08:49;4.57;;;2.60;;
21305;SDS011;10812;51.838;5.838;2023-02-28T07:11:20;5.67;;;2.50;;
21305;SDS011;10812;51.838;5.838;2023-02-28T07:13:52;2.97;;;2.00;;
21305;SDS011;10812;51.838;5.838;2023-02-28T07:16:20;5.90;;;2.63;;
21305;SDS011;10812;51.838;5.838;2023-02-28T07:18:49;4.37;;;2.57;;
21305;SDS011;10812;51.838;5.838;2023-02-28T07:21:20;3.53;;;2.80;;
21305;SDS011;10812;51.838;5.838;2023-02-28T07:23:50;5.67;;;3.13;;
21305;SDS011;10812;51.838;5.838;2023-02-28T07:26:19;7.13;;;2.93;;
21305;SDS011;10812;51.838;5.838;2023-02-28T07:28:47;3.93;;;2.97;;
21305;SDS011;10812;51.838;5.838;2023-02-28T07:31:16;4.97;;;3.17;;
21305;SDS011;10812;51.838;5.838;2023-02-28T07:33:44;3.87;;;2.77;;
21305;SDS011;10812;51.838;5.838;2023-02-28T07:36:14;4.00;;;2.93;;
21305;SDS011;10812;51.838;5.838;2023-02-28T07:38:45;4.23;;;2.70;;
21305;SDS011;10812;51.838;5.838;2023-02-28T07:41:18;2.70;;;2.13;;
21305;SDS011;10812;51.838;5.838;2023-02-28T07:43:47;3.90;;;2.33;;
21305;SDS011;10812;51.838;5.838;2023-02-28T07:46:15;4.17;;;2.27;;
21305;SDS011;10812;51.838;5.838;2023-02-28T07:48:46;3.57;;;1.97;;
21305;SDS011;10812;51.838;5.838;2023-02-28T07:51:14;3.03;;;2.07;;
21305;SDS011;10812;51.838;5.838;2023-02-28T07:53:42;3.10;;;2.10;;
21305;SDS011;10812;51.838;5.838;2023-02-28T07:56:10;2.27;;;1.57;;
21305;SDS011;10812;51.838;5.838;2023-02-28T07:58:40;3.63;;;1.57;;
21305;SDS011;10812;51.838;5.838;2023-02-28T08:01:08;2.30;;;1.47;;
21305;SDS011;10812;51.838;5.838;2023-02-28T08:03:38;2.80;;;2.07;;
21305;SDS011;10812;51.838;5.838;2023-02-28T08:06:07;3.10;;;1.70;;
21305;SDS011;10812;51.838;5.838;2023-02-28T08:08:42;2.53;;;1.30;;
21305;SDS011;10812;51.838;5.838;2023-02-28T08:11:10;3.63;;;1.40;;
21305;SDS011;10812;51.838;5.838;2023-02-28T08:13:40;3.57;;;1.47;;
21305;SDS011;10812;51.838;5.838;2023-02-28T08:16:10;2.70;;;1.60;;
21305;SDS011;10812;51.838;5.838;2023-02-28T08:18:41;2.03;;;1.20;;
21305;SDS011;10812;51.838;5.838;2023-02-28T08:21:10;2.57;;;1.40;;
21305;SDS011;10812;51.838;5.838;2023-02-28T08:23:38;1.60;;;1.23;;
21305;SDS011;10812;51.838;5.838;2023-02-28T08:26:06;1.40;;;1.30;;
21305;SDS011;10812;51.838;5.838;2023-02-28T08:28:34;3.03;;;1.30;;
21305;SDS011;10812;51.838;5.838;2023-02-28T08:31:08;1.50;;;1.37;;
21305;SDS011;10812;51.838;5.838;2023-02-28T08:33:37;1.00;;;1.00;;
21305;SDS011;10812;51.838;5.838;2023-02-28T08:36:06;1.50;;;1.00;;
21305;SDS011;10812;51.838;5.838;2023-02-28T08:38:36;1.80;;;1.00;;
21305;SDS011;10812;51.838;5.838;2023-02-28T08:41:05;2.80;;;0.97;;
21305;SDS011;10812;51.838;5.838;2023-02-28T08:43:35;2.03;;;1.20;;
21305;SDS011;10812;51.838;5.838;2023-02-28T08:46:04;1.23;;;1.00;;
21305;SDS011;10812;51.838;5.838;2023-02-28T08:48:34;1.20;;;1.00;;
21305;SDS011;10812;51.838;5.838;2023-02-28T08:51:05;1.50;;;1.10;;
21305;SDS011;10812;51.838;5.838;2023-02-28T08:53:35;1.07;;;0.97;;
21305;SDS011;10812;51.838;5.838;2023-02-28T08:56:04;1.20;;;0.80;;
21305;SDS011;10812;51.838;5.838;2023-02-28T08:58:33;1.00;;;0.90;;
21305;SDS011;10812;51.838;5.838;2023-02-28T09:01:07;0.80;;;0.60;;
21305;SDS011;10812;51.838;5.838;2023-02-28T09:03:38;0.70;;;0.70;;
21305;SDS011;10812;51.838;5.838;2023-02-28T09:06:07;0.70;;;0.70;;
21305;SDS011;10812;51.838;5.838;2023-02-28T09:08:36;1.20;;;1.07;;
21305;SDS011;10812;51.838;5.838;2023-02-28T09:11:05;2.60;;;1.00;;
21305;SDS011;10812;51.838;5.838;2023-02-28T09:13:33;1.10;;;1.00;;
21305;SDS011;10812;51.838;5.838;2023-02-28T09:16:03;1.30;;;0.87;;
21305;SDS011;10812;51.838;5.838;2023-02-28T09:18:33;4.47;;;1.43;;
21305;SDS011;10812;51.838;5.838;2023-02-28T09:21:05;1.20;;;1.07;;
21305;SDS011;10812;51.838;5.838;2023-02-28T09:23:34;2.50;;;1.27;;
21305;SDS011;10812;51.838;5.838;2023-02-28T09:26:04;2.73;;;1.37;;
21305;SDS011;10812;51.838;5.838;2023-02-28T09:28:32;1.43;;;1.17;;
21305;SDS011;10812;51.838;5.838;2023-02-28T09:31:00;3.93;;;1.20;;
21305;SDS011;10812;51.838;5.838;2023-02-28T09:33:31;1.20;;;0.90;;
21305;SDS011;10812;51.838;5.838;2023-02-28T09:36:00;1.67;;;1.30;;
21305;SDS011;10812;51.838;5.838;2023-02-28T09:38:31;2.63;;;1.27;;
21305;SDS011;10812;51.838;5.838;2023-02-28T09:41:00;1.33;;;0.90;;
21305;SDS011;10812;51.838;5.838;2023-02-28T09:43:32;1.50;;;1.20;;
21305;SDS011;10812;51.838;5.838;2023-02-28T09:46:05;1.30;;;1.20;;
21305;SDS011;10812;51.838;5.838;2023-02-28T09:48:42;1.77;;;1.30;;
21305;SDS011;10812;51.838;5.838;2023-02-28T09:51:14;2.07;;;1.53;;
21305;SDS011;10812;51.838;5.838;2023-02-28T09:53:55;0.73;;;0.70;;
21305;SDS011;10812;51.838;5.838;2023-02-28T09:56:28;1.10;;;1.00;;
21305;SDS011;10812;51.838;5.838;2023-02-28T09:59:01;1.37;;;0.97;;
21305;SDS011;10812;51.838;5.838;2023-02-28T10:01:35;1.33;;;1.07;;
21305;SDS011;10812;51.838;5.838;2023-02-28T10:04:11;5.70;;;1.13;;
21305;SDS011;10812;51.838;5.838;2023-02-28T10:06:46;3.83;;;1.00;;
21305;SDS011;10812;51.838;5.838;2023-02-28T10:09:19;1.30;;;0.90;;
21305;SDS011;10812;51.838;5.838;2023-02-28T10:11:50;1.63;;;1.00;;
21305;SDS011;10812;51.838;5.838;2023-02-28T10:14:24;1.17;;;0.80;;
21305;SDS011;10812;51.838;5.838;2023-02-28T10:16:56;1.20;;;0.93;;
21305;SDS011;10812;51.838;5.838;2023-02-28T10:19:30;1.30;;;0.90;;
21305;SDS011;10812;51.838;5.838;2023-02-28T10:22:03;1.10;;;1.00;;
21305;SDS011;10812;51.838;5.838;2023-02-28T10:24:40;0.83;;;0.83;;
21305;SDS011;10812;51.838;5.838;2023-02-28T10:27:13;1.27;;;0.90;;
21305;SDS011;10812;51.838;5.838;2023-02-28T10:29:44;1.87;;;1.00;;
21305;SDS011;10812;51.838;5.838;2023-02-28T10:32:14;1.20;;;0.80;;
21305;SDS011;10812;51.838;5.838;2023-02-28T10:34:45;1.90;;;1.00;;
21305;SDS011;10812;51.838;5.838;2023-02-28T10:37:19;1.03;;;0.87;;
21305;SDS011;10812;51.838;5.838;2023-02-28T10:39:49;1.37;;;1.07;;
21305;SDS011;10812;51.838;5.838;2023-02-28T10:42:21;0.63;;;0.63;;
21305;SDS011;10812;51.838;5.838;2023-02-28T10:45:04;1.80;;;0.80;;
21305;SDS011;10812;51.838;5.838;2023-02-28T10:47:34;1.40;;;0.93;;
21305;SDS011;10812;51.838;5.838;2023-02-28T10:50:05;2.10;;;0.80;;
21305;SDS011;10812;51.838;5.838;2023-02-28T10:52:53;0.87;;;0.87;;
21305;SDS011;10812;51.838;5.838;2023-02-28T10:55:24;2.57;;;1.10;;
21305;SDS011;10812;51.838;5.838;2023-02-28T10:57:53;1.70;;;1.10;;
21305;SDS011;10812;51.838;5.838;2023-02-28T11:00:22;2.10;;;0.77;;
21305;SDS011;10812;51.838;5.838;2023-02-28T11:02:51;1.60;;;1.00;;
21305;SDS011;10812;51.838;5.838;2023-02-28T11:05:27;1.43;;;1.20;;
21305;SDS011;10812;51.838;5.838;2023-02-28T11:07:59;1.00;;;1.00;;
21305;SDS011;10812;51.838;5.838;2023-02-28T11:10:34;1.23;;;0.97;;
21305;SDS011;10812;51.838;5.838;2023-02-28T11:13:03;2.03;;;0.90;;
21305;SDS011;10812;51.838;5.838;2023-02-28T11:15:33;1.93;;;1.17;;
21305;SDS011;10812;51.838;5.838;2023-02-28T11:18:02;2.37;;;1.13;;
21305;SDS011;10812;51.838;5.838;2023-02-28T11:20:47;1.63;;;1.10;;
21305;SDS011;10812;51.838;5.838;2023-02-28T11:23:16;2.87;;;1.27;;
21305;SDS011;10812;51.838;5.838;2023-02-28T11:25:49;2.43;;;1.47;;
21305;SDS011;10812;51.838;5.838;2023-02-28T11:28:25;1.87;;;1.57;;
21305;SDS011;10812;51.838;5.838;2023-02-28T11:31:03;2.10;;;1.90;;
21305;SDS011;10812;51.838;5.838;2023-02-28T11:33:40;2.50;;;1.40;;
21305;SDS011;10812;51.838;5.838;2023-02-28T11:36:12;1.60;;;1.30;;
21305;SDS011;10812;51.838;5.838;2023-02-28T11:38:46;2.50;;;1.40;;
21305;SDS011;10812;51.838;5.838;2023-02-28T11:41:25;2.37;;;1.30;;
21305;SDS011;10812;51.838;5.838;2023-02-28T11:44:06;1.53;;;1.43;;
21305;SDS011;10812;51.838;5.838;2023-02-28T11:46:43;1.10;;;0.97;;
21305;SDS011;10812;51.838;5.838;2023-02-28T11:49:21;0.93;;;0.83;;
21305;SDS011;10812;51.838;5.838;2023-02-28T11:51:59;1.33;;;1.10;;
21305;SDS011;10812;51.838;5.838;2023-02-28T11:54:33;2.23;;;1.30;;
21305;SDS011;10812;51.838;5.838;2023-02-28T11:57:28;2.10;;;1.30;;
21305;SDS011;10812;51.838;5.838;2023-02-28T12:00:08;2.00;;;1.20;;
21305;SDS011;10812;51.838;5.838;2023-02-28T12:02:54;1.67;;;1.43;;
21305;SDS011;10812;51.838;5.838;2023-02-28T12:05:31;1.30;;;1.00;;
21305;SDS011;10812;51.838;5.838;2023-02-28T12:08:08;1.60;;;1.20;;
21305;SDS011;10812;51.838;5.838;2023-02-28T12:10:51;1.30;;;1.03;;
21305;SDS011;10812;51.838;5.838;2023-02-28T12:13:29;1.43;;;1.10;;
21305;SDS011;10812;51.838;5.838;2023-02-28T12:16:16;1.63;;;1.20;;
21305;SDS011;10812;51.838;5.838;2023-02-28T12:18:59;1.63;;;1.00;;
21305;SDS011;10812;51.838;5.838;2023-02-28T12:21:38;2.80;;;1.10;;
21305;SDS011;10812;51.838;5.838;2023-02-28T12:24:20;1.73;;;1.00;;
21305;SDS011;10812;51.838;5.838;2023-02-28T12:26:56;1.43;;;1.20;;
21305;SDS011;10812;51.838;5.838;2023-02-28T12:29:32;1.80;;;0.87;;
21305;SDS011;10812;51.838;5.838;2023-02-28T12:32:09;1.40;;;1.07;;
21305;SDS011;10812;51.838;5.838;2023-02-28T12:34:43;2.40;;;1.17;;
21305;SDS011;10812;51.838;5.838;2023-02-28T12:37:25;1.20;;;1.10;;
21305;SDS011;10812;51.838;5.838;2023-02-28T12:40:00;1.47;;;1.00;;
21305;SDS011;10812;51.838;5.838;2023-02-28T12:42:32;2.80;;;1.30;;
21305;SDS011;10812;51.838;5.838;2023-02-28T12:45:07;1.20;;;1.10;;
21305;SDS011;10812;51.838;5.838;2023-02-28T12:47:40;1.53;;;1.00;;
21305;SDS011;10812;51.838;5.838;2023-02-28T12:50:10;6.97;;;1.30;;
21305;SDS011;10812;51.838;5.838;2023-02-28T12:52:41;1.47;;;1.23;;
21305;SDS011;10812;51.838;5.838;2023-02-28T12:55:21;2.60;;;1.53;;
21305;SDS011;10812;51.838;5.838;2023-02-28T12:57:57;1.23;;;0.87;;
21305;SDS011;10812;51.838;5.838;2023-02-28T13:00:35;1.40;;;1.30;;
21305;SDS011;10812;51.838;5.838;2023-02-28T13:14:01;2.20;;;1.57;;
21305;SDS011;10812;51.838;5.838;2023-02-28T13:19:22;2.93;;;2.00;;
21305;SDS011;10812;51.838;5.838;2023-02-28T13:21:52;2.07;;;1.37;;
21305;SDS011;10812;51.838;5.838;2023-02-28T13:24:41;2.27;;;1.47;;
21305;SDS011;10812;51.838;5.838;2023-02-28T13:27:17;2.77;;;1.50;;
21305;SDS011;10812;51.838;5.838;2023-02-28T13:29:51;1.83;;;1.37;;
21305;SDS011;10812;51.838;5.838;2023-02-28T13:44:10;0.90;;;0.60;;
21305;SDS011;10812;51.838;5.838;2023-02-28T13:49:52;1.10;;;1.00;;
21305;SDS011;10812;51.838;5.838;2023-02-28T13:52:22;1.00;;;0.90;;
21305;SDS011;10812;51.838;5.838;2023-02-28T13:54:54;2.53;;;1.20;;
21305;SDS011;10812;51.838;5.838;2023-02-28T13:57:46;1.83;;;1.17;;
21305;SDS011;10812;51.838;5.838;2023-02-28T14:00:29;1.77;;;1.20;;
21305;SDS011;10812;51.838;5.838;2023-02-28T14:03:13;3.53;;;1.93;;
21305;SDS011;10812;51.838;5.838;2023-02-28T14:08:54;2.10;;;1.03;;
21305;SDS011;10812;51.838;5.838;2023-02-28T14:11:27;1.50;;;1.03;;
21305;SDS011;10812;51.838;5.838;2023-02-28T14:13:58;3.07;;;1.40;;
21305;SDS011;10812;51.838;5.838;2023-02-28T14:16:27;2.63;;;1.57;;
21305;SDS011;10812;51.838;5.838;2023-02-28T14:19:05;1.70;;;1.40;;
21305;SDS011;10812;51.838;5.838;2023-02-28T14:21:43;1.57;;;1.40;;
21305;SDS011;10812;51.838;5.838;2023-02-28T14:27:21;2.07;;;1.33;;
21305;SDS011;10812;51.838;5.838;2023-02-28T14:30:13;1.60;;;1.03;;
21305;SDS011;10812;51.838;5.838;2023-02-28T14:32:58;1.07;;;0.90;;
21305;SDS011;10812;51.838;5.838;2023-02-28T14:35:40;2.77;;;1.43;;
21305;SDS011;10812;51.838;5.838;2023-02-28T14:38:18;1.47;;;1.17;;
21305;SDS011;10812;51.838;5.838;2023-02-28T14:40:51;2.70;;;0.87;;
21305;SDS011;10812;51.838;5.838;2023-02-28T14:43:22;2.27;;;1.17;;
21305;SDS011;10812;51.838;5.838;2023-02-28T14:45:52;2.53;;;1.20;;
21305;SDS011;10812;51.838;5.838;2023-02-28T14:56:27;2.40;;;1.27;;
21305;SDS011;10812;51.838;5.838;2023-02-28T14:59:00;2.50;;;1.27;;
21305;SDS011;10812;51.838;5.838;2023-02-28T15:01:28;2.40;;;1.30;;
21305;SDS011;10812;51.838;5.838;2023-02-28T15:04:02;1.57;;;1.00;;
21305;SDS011;10812;51.838;5.838;2023-02-28T15:06:32;1.57;;;1.27;;
21305;SDS011;10812;51.838;5.838;2023-02-28T15:09:08;2.23;;;1.50;;
21305;SDS011;10812;51.838;5.838;2023-02-28T15:11:44;2.43;;;1.20;;
21305;SDS011;10812;51.838;5.838;2023-02-28T15:14:15;3.17;;;1.40;;
21305;SDS011;10812;51.838;5.838;2023-02-28T15:16:48;3.23;;;1.50;;
21305;SDS011;10812;51.838;5.838;2023-02-28T15:19:20;2.23;;;1.33;;
21305;SDS011;10812;51.838;5.838;2023-02-28T15:33:20;1.90;;;1.17;;
21305;SDS011;10812;51.838;5.838;2023-02-28T15:35:50;1.83;;;1.27;;
21305;SDS011;10812;51.838;5.838;2023-02-28T15:38:22;2.50;;;1.30;;
21305;SDS011;10812;51.838;5.838;2023-02-28T15:40:51;1.33;;;1.23;;
21305;SDS011;10812;51.838;5.838;2023-02-28T15:43:23;2.50;;;1.30;;
21305;SDS011;10812;51.838;5.838;2023-02-28T15:45:55;2.80;;;1.20;;
21305;SDS011;10812;51.838;5.838;2023-02-28T15:48:28;1.50;;;1.07;;
21305;SDS011;10812;51.838;5.838;2023-02-28T15:51:01;3.67;;;1.40;;
21305;SDS011;10812;51.838;5.838;2023-02-28T15:53:34;1.50;;;1.30;;
21305;SDS011;10812;51.838;5.838;2023-02-28T15:56:05;1.60;;;1.50;;
21305;SDS011;10812;51.838;5.838;2023-02-28T15:58:49;1.60;;;1.40;;
21305;SDS011;10812;51.838;5.838;2023-02-28T16:01:23;1.93;;;1.27;;
21305;SDS011;10812;51.838;5.838;2023-02-28T16:03:57;1.57;;;1.10;;
21305;SDS011;10812;51.838;5.838;2023-02-28T16:06:32;3.97;;;1.50;;
21305;SDS011;10812;51.838;5.838;2023-02-28T16:09:03;1.40;;;1.20;;
21305;SDS011;10812;51.838;5.838;2023-02-28T16:11:36;2.00;;;1.30;;
21305;SDS011;10812;51.838;5.838;2023-02-28T16:14:11;2.67;;;1.50;;
21305;SDS011;10812;51.838;5.838;2023-02-28T16:16:44;1.80;;;1.47;;
21305;SDS011;10812;51.838;5.838;2023-02-28T16:19:16;2.90;;;1.47;;
21305;SDS011;10812;51.838;5.838;2023-02-28T16:21:44;1.73;;;1.40;;
21305;SDS011;10812;51.838;5.838;2023-02-28T16:24:13;3.07;;;1.60;;
21305;SDS011;10812;51.838;5.838;2023-02-28T16:26:42;2.03;;;1.20;;
21305;SDS011;10812;51.838;5.838;2023-02-28T16:29:14;3.70;;;1.90;;
21305;SDS011;10812;51.838;5.838;2023-02-28T16:31:50;2.07;;;1.37;;